Decoded Metar for PAPH (PORT HEIDEN in AK, USA) (IATA:PTH) | Meteo·Mobile Aviation Weather
aviador You're here:

PAPH Decoded Metar

PORT HEIDEN in AK, USA
Report Time2019-05-26 15:56:00
UTC Time2019-05-26 16:59:11
Flight Rules vfr VFR
Wind100° at 05 kt
W.Decomp.*RWY 05: 4.1 kt HW 2.8 kt RCW
RWY 13: 3.5 kt HW 3.6 kt LCW
Visibility9999 m
Phenomena:Light Rain
Clouds:Broken 055 Hf
Overcast 070 Hf
Expected CloudBase > 1,200 ft AGL from Temp-Dew spread
Ceiling5,500 ft
Temp09°C (ISA -6)
Dew Point06°C (82% RH)
AAT6.3°C
QNH1001 hPa
Density Alt-66 ft
Elevation95 ft
Report Wrong Elevation
Raw Report
PAPH 261556Z AUTO 10005KT 10SM -RA BKN055 OVC070 09/06 A2957 RMK
AO2 RAB15 SLP018 P0000 T00890061=

Extra information for PAPH:More info

Metar Taf Metar & Taf Last 4 Metars F.Rules Stats Wind Profile Meteogram Temp Stats Airport Information Weather charts Add Link Nearby VenuesMetar ALERT Operation Metar Decoded Social comments

AIRNAV info for PAPH